sensor_id;sensor_type;location;lat;lon;timestamp;pressure;altitude;pressure_sealevel;temperature;humidity
34983;BME280;21187;50.976;13.720;2023-04-15T00:03:44;97068.38;;;9.44;62.85
34983;BME280;21187;50.976;13.720;2023-04-15T00:08:47;97066.09;;;9.46;62.91
34983;BME280;21187;50.976;13.720;2023-04-15T00:13:49;97066.06;;;9.43;63.37
34983;BME280;21187;50.976;13.720;2023-04-15T00:18:51;97068.38;;;9.44;62.68
34983;BME280;21187;50.976;13.720;2023-04-15T00:23:53;97062.94;;;9.41;63.19
34983;BME280;21187;50.976;13.720;2023-04-15T00:28:55;97055.91;;;9.32;63.35
34983;BME280;21187;50.976;13.720;2023-04-15T00:33:57;97048.22;;;9.35;63.30
34983;BME280;21187;50.976;13.720;2023-04-15T00:39:00;97045.88;;;9.33;63.50
34983;BME280;21187;50.976;13.720;2023-04-15T00:44:06;97032.00;;;9.38;63.73
34983;BME280;21187;50.976;13.720;2023-04-15T00:49:09;97040.50;;;9.37;63.16
34983;BME280;21187;50.976;13.720;2023-04-15T00:54:11;97039.78;;;9.43;63.10
34983;BME280;21187;50.976;13.720;2023-04-15T00:59:16;97041.34;;;9.44;62.51
34983;BME280;21187;50.976;13.720;2023-04-15T01:04:19;97035.25;;;9.51;63.11
34983;BME280;21187;50.976;13.720;2023-04-15T01:09:21;97039.78;;;9.43;62.86
34983;BME280;21187;50.976;13.720;2023-04-15T01:14:24;97025.78;;;9.30;63.57
34983;BME280;21187;50.976;13.720;2023-04-15T01:19:27;97021.88;;;9.28;63.54
34983;BME280;21187;50.976;13.720;2023-04-15T01:24:29;97018.88;;;9.37;63.36
34983;BME280;21187;50.976;13.720;2023-04-15T01:29:36;97017.78;;;9.41;63.18
34983;BME280;21187;50.976;13.720;2023-04-15T01:34:39;97020.06;;;9.39;63.37
34983;BME280;21187;50.976;13.720;2023-04-15T01:39:41;97017.38;;;9.39;62.97
34983;BME280;21187;50.976;13.720;2023-04-15T01:44:43;97018.19;;;9.43;63.08
34983;BME280;21187;50.976;13.720;2023-04-15T01:49:45;97024.38;;;9.47;62.71
34983;BME280;21187;50.976;13.720;2023-04-15T01:54:47;97024.06;;;9.53;62.28
34983;BME280;21187;50.976;13.720;2023-04-15T01:59:49;97018.31;;;9.58;62.18
34983;BME280;21187;50.976;13.720;2023-04-15T02:04:51;97015.28;;;9.63;62.40
34983;BME280;21187;50.976;13.720;2023-04-15T02:09:54;97005.53;;;9.51;62.68
34983;BME280;21187;50.976;13.720;2023-04-15T02:14:55;96998.88;;;9.41;63.24
34983;BME280;21187;50.976;13.720;2023-04-15T02:19:57;97005.84;;;9.42;62.93
34983;BME280;21187;50.976;13.720;2023-04-15T02:25:00;97005.47;;;9.44;63.13
34983;BME280;21187;50.976;13.720;2023-04-15T02:30:02;96990.69;;;9.34;63.37
34983;BME280;21187;50.976;13.720;2023-04-15T02:35:05;96991.91;;;9.40;63.15
34983;BME280;21187;50.976;13.720;2023-04-15T02:40:09;96983.03;;;9.43;63.32
34983;BME280;21187;50.976;13.720;2023-04-15T02:45:12;96986.50;;;9.40;63.70
34983;BME280;21187;50.976;13.720;2023-04-15T02:50:15;96998.06;;;9.41;63.20
34983;BME280;21187;50.976;13.720;2023-04-15T02:55:17;97001.28;;;9.54;63.22
34983;BME280;21187;50.976;13.720;2023-04-15T03:00:19;96992.72;;;9.44;63.64
34983;BME280;21187;50.976;13.720;2023-04-15T03:05:23;96991.84;;;9.33;64.02
34983;BME280;21187;50.976;13.720;2023-04-15T03:10:26;96981.84;;;9.37;63.75
34983;BME280;21187;50.976;13.720;2023-04-15T03:15:28;96978.81;;;9.42;63.56
34983;BME280;21187;50.976;13.720;2023-04-15T03:20:30;96974.97;;;9.47;63.14
34983;BME280;21187;50.976;13.720;2023-04-15T03:25:32;96979.59;;;9.43;63.19
34983;BME280;21187;50.976;13.720;2023-04-15T03:30:34;96984.22;;;9.42;63.06
34983;BME280;21187;50.976;13.720;2023-04-15T03:35:36;96983.03;;;9.43;63.51
34983;BME280;21187;50.976;13.720;2023-04-15T03:40:41;96963.31;;;9.39;63.49
34983;BME280;21187;50.976;13.720;2023-04-15T03:45:43;96962.47;;;9.31;64.31
34983;BME280;21187;50.976;13.720;2023-04-15T03:50:45;96959.03;;;9.35;64.29
34983;BME280;21187;50.976;13.720;2023-04-15T03:55:47;96949.91;;;9.46;62.99
34983;BME280;21187;50.976;13.720;2023-04-15T04:00:49;96947.19;;;9.46;62.97
34983;BME280;21187;50.976;13.720;2023-04-15T04:05:51;96944.03;;;9.41;63.46
34983;BME280;21187;50.976;13.720;2023-04-15T04:10:53;96950.91;;;9.31;63.67
34983;BME280;21187;50.976;13.720;2023-04-15T04:15:54;96956.34;;;9.35;63.66
34983;BME280;21187;50.976;13.720;2023-04-15T04:20:56;96960.09;;;9.26;64.16
34983;BME280;21187;50.976;13.720;2023-04-15T04:25:58;96951.66;;;9.28;64.32
34983;BME280;21187;50.976;13.720;2023-04-15T04:31:00;96960.22;;;9.37;63.66
34983;BME280;21187;50.976;13.720;2023-04-15T04:36:02;96972.19;;;9.36;64.23
34983;BME280;21187;50.976;13.720;2023-04-15T04:41:04;96969.06;;;9.34;64.34
34983;BME280;21187;50.976;13.720;2023-04-15T04:46:06;96979.50;;;9.36;63.97
34983;BME280;21187;50.976;13.720;2023-04-15T04:51:08;96993.41;;;9.38;63.71
34983;BME280;21187;50.976;13.720;2023-04-15T04:56:10;96995.84;;;9.46;63.90
34983;BME280;21187;50.976;13.720;2023-04-15T05:01:12;96991.16;;;9.43;63.61
34983;BME280;21187;50.976;13.720;2023-04-15T05:06:14;96998.91;;;9.45;63.74
34983;BME280;21187;50.976;13.720;2023-04-15T05:11:16;96998.56;;;9.50;63.70
34983;BME280;21187;50.976;13.720;2023-04-15T05:16:18;97003.97;;;9.50;63.47
34983;BME280;21187;50.976;13.720;2023-04-15T05:21:20;97007.47;;;9.51;63.70
34983;BME280;21187;50.976;13.720;2023-04-15T05:26:22;97004.03;;;9.57;63.68
34983;BME280;21187;50.976;13.720;2023-04-15T05:31:24;97002.53;;;9.60;63.93
34983;BME280;21187;50.976;13.720;2023-04-15T05:36:27;97006.41;;;9.62;63.60
34983;BME280;21187;50.976;13.720;2023-04-15T05:41:29;97014.91;;;9.61;63.90
34983;BME280;21187;50.976;13.720;2023-04-15T05:46:31;97011.72;;;9.55;64.00
34983;BME280;21187;50.976;13.720;2023-04-15T05:51:33;97022.91;;;9.54;64.02
34983;BME280;21187;50.976;13.720;2023-04-15T05:56:34;97033.00;;;9.57;64.27
34983;BME280;21187;50.976;13.720;2023-04-15T06:01:37;97038.41;;;9.57;63.97
34983;BME280;21187;50.976;13.720;2023-04-15T06:06:39;97028.00;;;9.59;63.94
34983;BME280;21187;50.976;13.720;2023-04-15T06:11:41;97036.19;;;9.66;63.49
34983;BME280;21187;50.976;13.720;2023-04-15T06:16:43;97030.78;;;9.70;64.04
34983;BME280;21187;50.976;13.720;2023-04-15T06:21:45;97025.72;;;9.61;63.98
34983;BME280;21187;50.976;13.720;2023-04-15T06:26:47;97033.81;;;9.61;63.96
34983;BME280;21187;50.976;13.720;2023-04-15T06:31:49;97043.13;;;9.67;64.15
34983;BME280;21187;50.976;13.720;2023-04-15T06:36:51;97049.44;;;9.78;63.59
34983;BME280;21187;50.976;13.720;2023-04-15T06:41:52;97057.53;;;9.78;64.09
34983;BME280;21187;50.976;13.720;2023-04-15T06:46:55;97051.72;;;9.76;64.20
34983;BME280;21187;50.976;13.720;2023-04-15T06:51:57;97050.25;;;9.82;63.55
34983;BME280;21187;50.976;13.720;2023-04-15T06:56:59;97057.25;;;9.87;63.62
34983;BME280;21187;50.976;13.720;2023-04-15T07:02:00;97060.31;;;9.86;64.17
34983;BME280;21187;50.976;13.720;2023-04-15T07:07:02;97073.44;;;9.83;63.90
34983;BME280;21187;50.976;13.720;2023-04-15T07:12:04;97081.22;;;9.89;63.70
34983;BME280;21187;50.976;13.720;2023-04-15T07:17:07;97070.44;;;9.96;63.73
34983;BME280;21187;50.976;13.720;2023-04-15T07:22:09;97075.94;;;10.03;63.98
34983;BME280;21187;50.976;13.720;2023-04-15T07:27:11;97091.41;;;10.06;63.85
34983;BME280;21187;50.976;13.720;2023-04-15T07:32:13;97104.19;;;10.09;63.87
34983;BME280;21187;50.976;13.720;2023-04-15T07:37:15;97103.13;;;10.18;63.23
34983;BME280;21187;50.976;13.720;2023-04-15T07:42:17;97094.25;;;10.21;63.56
34983;BME280;21187;50.976;13.720;2023-04-15T07:47:19;97085.13;;;10.40;63.02
34983;BME280;21187;50.976;13.720;2023-04-15T07:52:21;97098.84;;;10.61;63.00
34983;BME280;21187;50.976;13.720;2023-04-15T07:57:23;97105.94;;;10.80;62.84
34983;BME280;21187;50.976;13.720;2023-04-15T08:02:25;97109.09;;;10.90;62.90
34983;BME280;21187;50.976;13.720;2023-04-15T08:07:27;97113.78;;;11.00;62.40
34983;BME280;21187;50.976;13.720;2023-04-15T08:12:29;97110.72;;;11.05;62.39
34983;BME280;21187;50.976;13.720;2023-04-15T08:17:31;97123.16;;;11.13;62.06
34983;BME280;21187;50.976;13.720;2023-04-15T08:22:33;97127.06;;;11.20;61.78
34983;BME280;21187;50.976;13.720;2023-04-15T08:27:35;97134.84;;;11.25;61.65
34983;BME280;21187;50.976;13.720;2023-04-15T08:32:37;97128.66;;;11.28;61.38
34983;BME280;21187;50.976;13.720;2023-04-15T08:37:39;97135.69;;;11.43;61.24
34983;BME280;21187;50.976;13.720;2023-04-15T08:42:43;97131.78;;;11.37;61.13
34983;BME280;21187;50.976;13.720;2023-04-15T08:47:52;97141.06;;;11.36;60.71
34983;BME280;21187;50.976;13.720;2023-04-15T08:53:00;97143.03;;;11.39;61.07
34983;BME280;21187;50.976;13.720;2023-04-15T08:58:02;97144.28;;;11.60;60.74
34983;BME280;21187;50.976;13.720;2023-04-15T09:03:05;97158.31;;;11.76;60.39
34983;BME280;21187;50.976;13.720;2023-04-15T09:08:08;97162.91;;;11.65;60.14
34983;BME280;21187;50.976;13.720;2023-04-15T09:13:10;97164.38;;;11.44;60.48
34983;BME280;21187;50.976;13.720;2023-04-15T09:18:13;97166.66;;;11.35;60.63
34983;BME280;21187;50.976;13.720;2023-04-15T09:23:27;97168.94;;;11.33;60.49
34983;BME280;21187;50.976;13.720;2023-04-15T09:28:29;97171.31;;;11.42;60.20
34983;BME280;21187;50.976;13.720;2023-04-15T09:33:32;97182.22;;;11.53;60.28
34983;BME280;21187;50.976;13.720;2023-04-15T09:38:33;97187.66;;;11.56;60.14
34983;BME280;21187;50.976;13.720;2023-04-15T09:43:39;97193.84;;;11.57;59.99
34983;BME280;21187;50.976;13.720;2023-04-15T09:48:41;97192.34;;;11.63;59.96
34983;BME280;21187;50.976;13.720;2023-04-15T09:53:43;97204.75;;;11.68;59.73
34983;BME280;21187;50.976;13.720;2023-04-15T09:58:44;97213.28;;;11.66;59.89
34983;BME280;21187;50.976;13.720;2023-04-15T10:03:47;97209.78;;;11.69;59.53
34983;BME280;21187;50.976;13.720;2023-04-15T10:08:50;97223.38;;;11.73;59.52
34983;BME280;21187;50.976;13.720;2023-04-15T10:13:52;97217.19;;;11.72;59.28
34983;BME280;21187;50.976;13.720;2023-04-15T10:18:56;97222.16;;;11.66;59.54
34983;BME280;21187;50.976;13.720;2023-04-15T10:23:59;97226.44;;;11.68;59.28
34983;BME280;21187;50.976;13.720;2023-04-15T10:29:03;97233.41;;;11.65;59.31
34983;BME280;21187;50.976;13.720;2023-04-15T10:34:05;97239.97;;;11.60;58.79
34983;BME280;21187;50.976;13.720;2023-04-15T10:39:43;97232.19;;;11.52;59.04
34983;BME280;21187;50.976;13.720;2023-04-15T10:44:50;97235.31;;;11.54;59.04
34983;BME280;21187;50.976;13.720;2023-04-15T10:50:01;97234.13;;;11.51;59.20
34983;BME280;21187;50.976;13.720;2023-04-15T10:55:11;97243.00;;;11.48;58.92
34983;BME280;21187;50.976;13.720;2023-04-15T11:00:15;97244.94;;;11.47;58.73
34983;BME280;21187;50.976;13.720;2023-04-15T11:05:19;97245.78;;;11.59;58.56
34983;BME280;21187;50.976;13.720;2023-04-15T11:20:51;97264.81;;;11.70;58.02
34983;BME280;21187;50.976;13.720;2023-04-15T11:25:56;97274.50;;;11.67;57.95
34983;BME280;21187;50.976;13.720;2023-04-15T11:31:05;97277.97;;;11.64;57.68
34983;BME280;21187;50.976;13.720;2023-04-15T11:36:09;97283.72;;;11.55;57.75
34983;BME280;21187;50.976;13.720;2023-04-15T11:41:11;97286.81;;;11.54;57.91
34983;BME280;21187;50.976;13.720;2023-04-15T11:46:13;97299.28;;;11.65;57.69
34983;BME280;21187;50.976;13.720;2023-04-15T11:51:17;97297.00;;;11.71;57.51
34983;BME280;21187;50.976;13.720;2023-04-15T11:56:23;97297.00;;;11.71;57.56
34983;BME280;21187;50.976;13.720;2023-04-15T12:01:35;97304.38;;;11.74;57.37
34983;BME280;21187;50.976;13.720;2023-04-15T12:06:40;97310.97;;;11.77;57.47
34983;BME280;21187;50.976;13.720;2023-04-15T12:11:49;97311.00;;;11.80;57.28
34983;BME280;21187;50.976;13.720;2023-04-15T12:16:56;97321.91;;;11.88;56.88
34983;BME280;21187;50.976;13.720;2023-04-15T12:22:05;97326.16;;;11.89;57.07
34983;BME280;21187;50.976;13.720;2023-04-15T12:27:15;97331.94;;;11.83;56.69
34983;BME280;21187;50.976;13.720;2023-04-15T12:32:17;97340.47;;;11.86;56.96
34983;BME280;21187;50.976;13.720;2023-04-15T12:37:23;97349.84;;;11.92;56.72
34983;BME280;21187;50.976;13.720;2023-04-15T12:42:25;97351.41;;;11.96;56.50
34983;BME280;21187;50.976;13.720;2023-04-15T12:47:28;97356.13;;;12.03;56.26
34983;BME280;21187;50.976;13.720;2023-04-15T12:52:30;97360.81;;;12.06;56.18
34983;BME280;21187;50.976;13.720;2023-04-15T12:57:32;97375.47;;;11.98;55.70
34983;BME280;21187;50.976;13.720;2023-04-15T13:02:35;97381.22;;;11.89;55.74
34983;BME280;21187;50.976;13.720;2023-04-15T13:07:37;97387.41;;;11.90;55.83
34983;BME280;21187;50.976;13.720;2023-04-15T13:12:39;97393.31;;;11.99;55.76
34983;BME280;21187;50.976;13.720;2023-04-15T13:17:42;97389.47;;;12.04;55.61
34983;BME280;21187;50.976;13.720;2023-04-15T13:22:44;97391.81;;;12.05;55.49
34983;BME280;21187;50.976;13.720;2023-04-15T13:27:46;97388.34;;;12.12;55.63
34983;BME280;21187;50.976;13.720;2023-04-15T13:32:48;97392.28;;;12.22;55.43
34983;BME280;21187;50.976;13.720;2023-04-15T13:37:52;97397.75;;;12.29;55.34
34983;BME280;21187;50.976;13.720;2023-04-15T13:42:56;97399.78;;;12.46;55.53
34983;BME280;21187;50.976;13.720;2023-04-15T13:47:59;97402.97;;;12.63;54.99
34983;BME280;21187;50.976;13.720;2023-04-15T13:53:01;97402.19;;;12.73;54.78
34983;BME280;21187;50.976;13.720;2023-04-15T13:58:03;97417.75;;;12.84;54.76
34983;BME280;21187;50.976;13.720;2023-04-15T14:03:05;97413.94;;;12.95;54.61
34983;BME280;21187;50.976;13.720;2023-04-15T14:08:07;97423.25;;;12.98;54.35
34983;BME280;21187;50.976;13.720;2023-04-15T14:13:09;97424.06;;;13.06;54.42
34983;BME280;21187;50.976;13.720;2023-04-15T14:18:11;97434.16;;;13.12;54.39
34983;BME280;21187;50.976;13.720;2023-04-15T14:23:12;97438.84;;;13.23;54.10
34983;BME280;21187;50.976;13.720;2023-04-15T14:28:15;97450.16;;;13.36;54.13
34983;BME280;21187;50.976;13.720;2023-04-15T14:33:17;97453.66;;;13.43;53.86
34983;BME280;21187;50.976;13.720;2023-04-15T14:38:19;97463.03;;;13.42;53.65
34983;BME280;21187;50.976;13.720;2023-04-15T14:43:23;97463.00;;;13.50;53.81
34983;BME280;21187;50.976;13.720;2023-04-15T14:48:25;97460.31;;;13.57;53.47
34983;BME280;21187;50.976;13.720;2023-04-15T14:53:27;97473.13;;;13.60;53.59
34983;BME280;21187;50.976;13.720;2023-04-15T14:58:29;97468.88;;;13.66;53.13
34983;BME280;21187;50.976;13.720;2023-04-15T15:03:31;97477.81;;;13.70;53.26
34983;BME280;21187;50.976;13.720;2023-04-15T15:08:34;97487.16;;;13.84;52.96
34983;BME280;21187;50.976;13.720;2023-04-15T15:13:38;97492.59;;;13.98;52.92
34983;BME280;21187;50.976;13.720;2023-04-15T15:18:40;97499.22;;;14.08;52.66
34983;BME280;21187;50.976;13.720;2023-04-15T15:23:43;97505.03;;;14.17;52.88
34983;BME280;21187;50.976;13.720;2023-04-15T15:28:45;97508.94;;;14.23;52.36
34983;BME280;21187;50.976;13.720;2023-04-15T15:33:47;97517.50;;;14.22;52.29
34983;BME280;21187;50.976;13.720;2023-04-15T15:38:50;97519.06;;;14.19;52.26
34983;BME280;21187;50.976;13.720;2023-04-15T15:43:53;97521.38;;;14.17;52.13
34983;BME280;21187;50.976;13.720;2023-04-15T15:48:55;97529.94;;;14.08;52.35
34983;BME280;21187;50.976;13.720;2023-04-15T15:53:56;97548.59;;;14.06;52.55
34983;BME280;21187;50.976;13.720;2023-04-15T15:58:58;97546.28;;;14.05;52.16
34983;BME280;21187;50.976;13.720;2023-04-15T16:04:00;97550.16;;;14.00;52.42
34983;BME280;21187;50.976;13.720;2023-04-15T16:09:02;97550.16;;;14.00;52.18
34983;BME280;21187;50.976;13.720;2023-04-15T16:14:05;97557.16;;;13.97;52.15
34983;BME280;21187;50.976;13.720;2023-04-15T16:19:06;97564.16;;;13.91;52.15
34983;BME280;21187;50.976;13.720;2023-04-15T16:24:08;97572.69;;;13.86;52.32
34983;BME280;21187;50.976;13.720;2023-04-15T16:29:10;97574.25;;;13.84;52.56
34983;BME280;21187;50.976;13.720;2023-04-15T16:34:12;97581.22;;;13.77;52.65
34983;BME280;21187;50.976;13.720;2023-04-15T16:39:16;97588.22;;;13.71;52.52
34983;BME280;21187;50.976;13.720;2023-04-15T16:44:18;97594.78;;;13.63;52.81
34983;BME280;21187;50.976;13.720;2023-04-15T16:49:20;97592.44;;;13.58;52.59
34983;BME280;21187;50.976;13.720;2023-04-15T16:54:22;97602.94;;;13.56;52.38
34983;BME280;21187;50.976;13.720;2023-04-15T16:59:24;97608.38;;;13.56;52.43
34983;BME280;21187;50.976;13.720;2023-04-15T17:04:27;97616.13;;;13.54;52.39
34983;BME280;21187;50.976;13.720;2023-04-15T17:09:29;97620.03;;;13.53;52.54
34983;BME280;21187;50.976;13.720;2023-04-15T17:14:31;97618.47;;;13.52;52.42
34983;BME280;21187;50.976;13.720;2023-04-15T17:19:33;97632.06;;;13.52;52.48
34983;BME280;21187;50.976;13.720;2023-04-15T17:24:35;97633.22;;;13.51;52.80
34983;BME280;21187;50.976;13.720;2023-04-15T17:29:37;97642.53;;;13.50;52.70
34983;BME280;21187;50.976;13.720;2023-04-15T17:34:39;97649.53;;;13.47;52.63
34983;BME280;21187;50.976;13.720;2023-04-15T17:39:51;97650.31;;;13.44;52.83
34983;BME280;21187;50.976;13.720;2023-04-15T17:44:53;97662.72;;;13.41;52.88
34983;BME280;21187;50.976;13.720;2023-04-15T17:49:55;97661.94;;;13.37;52.69
34983;BME280;21187;50.976;13.720;2023-04-15T17:54:57;97678.56;;;13.32;52.73
34983;BME280;21187;50.976;13.720;2023-04-15T17:59:59;97681.22;;;13.25;53.00
34983;BME280;21187;50.976;13.720;2023-04-15T18:05:01;97692.44;;;13.12;53.19
34983;BME280;21187;50.976;13.720;2023-04-15T18:10:04;97696.59;;;12.95;53.29
34983;BME280;21187;50.976;13.720;2023-04-15T18:15:07;97710.44;;;12.79;53.94
34983;BME280;21187;50.976;13.720;2023-04-15T18:20:10;97713.53;;;12.78;54.08
34983;BME280;21187;50.976;13.720;2023-04-15T18:25:13;97721.59;;;12.71;54.15
34983;BME280;21187;50.976;13.720;2023-04-15T18:30:16;97726.13;;;12.56;54.42
34983;BME280;21187;50.976;13.720;2023-04-15T18:35:18;97729.47;;;12.38;54.81
34983;BME280;21187;50.976;13.720;2023-04-15T18:40:21;97744.84;;;12.27;55.14
34983;BME280;21187;50.976;13.720;2023-04-15T18:45:23;97740.94;;;12.21;54.97
34983;BME280;21187;50.976;13.720;2023-04-15T18:50:27;97747.81;;;12.14;55.34
34983;BME280;21187;50.976;13.720;2023-04-15T18:55:29;97745.50;;;12.13;55.27
34983;BME280;21187;50.976;13.720;2023-04-15T19:00:31;97750.97;;;12.20;55.29
34983;BME280;21187;50.976;13.720;2023-04-15T19:05:35;97755.59;;;12.16;55.14
34983;BME280;21187;50.976;13.720;2023-04-15T19:10:37;97761.63;;;12.02;55.43
34983;BME280;21187;50.976;13.720;2023-04-15T19:15:40;97766.34;;;12.05;55.50
34983;BME280;21187;50.976;13.720;2023-04-15T19:20:42;97781.13;;;12.11;55.32
34983;BME280;21187;50.976;13.720;2023-04-15T19:25:44;97789.69;;;12.13;55.15
34983;BME280;21187;50.976;13.720;2023-04-15T19:30:46;97786.97;;;12.13;55.16
34983;BME280;21187;50.976;13.720;2023-04-15T19:35:49;97797.41;;;12.11;55.46
34983;BME280;21187;50.976;13.720;2023-04-15T19:40:51;97805.91;;;12.06;55.41
34983;BME280;21187;50.976;13.720;2023-04-15T19:45:53;97800.97;;;11.89;55.94
34983;BME280;21187;50.976;13.720;2023-04-15T19:50:56;97807.88;;;11.82;55.92
34983;BME280;21187;50.976;13.720;2023-04-15T19:55:58;97814.03;;;11.79;56.07
34983;BME280;21187;50.976;13.720;2023-04-15T20:01:00;97815.50;;;11.73;56.11
34983;BME280;21187;50.976;13.720;2023-04-15T20:06:02;97827.75;;;11.63;56.21
34983;BME280;21187;50.976;13.720;2023-04-15T20:11:04;97835.34;;;11.54;56.62
34983;BME280;21187;50.976;13.720;2023-04-15T20:16:06;97827.06;;;11.43;56.66
34983;BME280;21187;50.976;13.720;2023-04-15T20:21:08;97834.31;;;11.36;56.84
34983;BME280;21187;50.976;13.720;2023-04-15T20:26:10;97844.25;;;11.28;57.41
34983;BME280;21187;50.976;13.720;2023-04-15T20:31:12;97856.84;;;11.17;57.74
34983;BME280;21187;50.976;13.720;2023-04-15T20:36:14;97850.88;;;11.07;57.71
34983;BME280;21187;50.976;13.720;2023-04-15T20:41:16;97855.09;;;11.05;57.92
34983;BME280;21187;50.976;13.720;2023-04-15T20:46:17;97853.94;;;11.06;58.06
34983;BME280;21187;50.976;13.720;2023-04-15T20:51:22;97860.91;;;11.07;57.94
34983;BME280;21187;50.976;13.720;2023-04-15T20:56:24;97869.91;;;11.11;57.95
34983;BME280;21187;50.976;13.720;2023-04-15T21:01:26;97869.53;;;11.12;57.84
34983;BME280;21187;50.976;13.720;2023-04-15T21:06:27;97871.66;;;10.99;58.51
34983;BME280;21187;50.976;13.720;2023-04-15T21:11:30;97876.00;;;10.85;58.90
34983;BME280;21187;50.976;13.720;2023-04-15T21:16:52;97883.56;;;10.75;59.15
34983;BME280;21187;50.976;13.720;2023-04-15T21:21:54;97896.81;;;10.80;59.29
34983;BME280;21187;50.976;13.720;2023-04-15T21:26:56;97900.81;;;10.87;58.81
34983;BME280;21187;50.976;13.720;2023-04-15T21:31:58;97909.06;;;10.94;58.61
34983;BME280;21187;50.976;13.720;2023-04-15T21:36:59;97907.81;;;10.88;59.05
34983;BME280;21187;50.976;13.720;2023-04-15T21:42:02;97910.66;;;10.75;59.26
34983;BME280;21187;50.976;13.720;2023-04-15T21:47:03;97912.78;;;10.66;59.76
34983;BME280;21187;50.976;13.720;2023-04-15T21:52:05;97920.34;;;10.57;59.96
34983;BME280;21187;50.976;13.720;2023-04-15T21:57:07;97925.25;;;10.51;60.18
34983;BME280;21187;50.976;13.720;2023-04-15T22:02:09;97916.38;;;10.51;59.77
34983;BME280;21187;50.976;13.720;2023-04-15T22:07:11;97934.97;;;10.52;59.83
34983;BME280;21187;50.976;13.720;2023-04-15T22:12:13;97937.44;;;10.61;59.87
34983;BME280;21187;50.976;13.720;2023-04-15T22:17:15;97938.66;;;10.63;59.58
34983;BME280;21187;50.976;13.720;2023-04-15T22:22:17;97943.28;;;10.43;60.36
34983;BME280;21187;50.976;13.720;2023-04-15T22:27:20;97954.09;;;10.43;60.11
34983;BME280;21187;50.976;13.720;2023-04-15T22:32:22;97943.28;;;10.43;59.95
34983;BME280;21187;50.976;13.720;2023-04-15T22:37:24;97955.94;;;10.39;60.40
34983;BME280;21187;50.976;13.720;2023-04-15T22:42:26;97962.38;;;10.35;60.16
34983;BME280;21187;50.976;13.720;2023-04-15T22:47:27;97975.31;;;10.25;60.92
34983;BME280;21187;50.976;13.720;2023-04-15T22:52:30;97977.53;;;10.20;61.07
34983;BME280;21187;50.976;13.720;2023-04-15T22:57:32;97978.25;;;10.16;60.82
34983;BME280;21187;50.976;13.720;2023-04-15T23:02:33;97990.19;;;10.15;61.32
34983;BME280;21187;50.976;13.720;2023-04-15T23:07:35;97989.06;;;10.16;60.82
34983;BME280;21187;50.976;13.720;2023-04-15T23:12:37;97982.94;;;10.20;61.17
34983;BME280;21187;50.976;13.720;2023-04-15T23:17:40;97984.50;;;10.21;60.90
34983;BME280;21187;50.976;13.720;2023-04-15T23:22:43;97988.34;;;10.20;61.12
34983;BME280;21187;50.976;13.720;2023-04-15T23:27:44;97994.88;;;10.19;61.62
34983;BME280;21187;50.976;13.720;2023-04-15T23:32:46;98002.31;;;10.22;61.13
34983;BME280;21187;50.976;13.720;2023-04-15T23:37:48;98010.19;;;10.27;61.15
34983;BME280;21187;50.976;13.720;2023-04-15T23:42:50;97999.88;;;10.32;61.14
34983;BME280;21187;50.976;13.720;2023-04-15T23:47:52;98002.69;;;10.36;61.25
34983;BME280;21187;50.976;13.720;2023-04-15T23:52:54;98013.66;;;10.43;60.71
34983;BME280;21187;50.976;13.720;2023-04-15T23:57:56;98007.34;;;10.55;60.56
